Time;durP1;ratioP1;P1;durP2;ratioP2;P2;SDS_P1;SDS_P2;PMS_P1;PMS_P2;Temp;Humidity;BMP_temperature;BMP_pressure;BME280_temperature;BME280_humidity;BME280_pressure;Samples;Min_cycle;Max_cycle;Signal;HPM_P1;HPM_P2
2023/03/20 00:00:09;;;;;;;21.02;11.88;;;;;;;8.25;100.00;101805.56;5093181;28;20033;-73
2023/03/20 00:02:37;;;;;;;17.48;11.38;;;;;;;8.22;100.00;101807.81;5072535;28;20569;-73
2023/03/20 00:05:14;;;;;;;19.25;10.93;;;;;;;8.19;100.00;101811.69;5093322;28;20028;-71
2023/03/20 00:07:39;;;;;;;18.65;11.90;;;;;;;8.23;100.00;101806.75;5093310;28;20073;-73
2023/03/20 00:10:05;;;;;;;14.75;10.73;;;;;;;8.17;100.00;101808.34;5092918;28;20521;-72
2023/03/20 00:12:30;;;;;;;18.63;11.85;;;;;;;8.23;100.00;101802.22;5091718;28;20595;-73
2023/03/20 00:14:56;;;;;;;16.85;11.55;;;;;;;8.23;100.00;101804.06;5092468;28;20031;-74
2023/03/20 00:17:21;;;;;;;18.23;11.85;;;;;;;8.21;100.00;101808.81;5074727;28;20024;-73
2023/03/20 00:19:47;;;;;;;19.65;11.40;;;;;;;8.23;100.00;101810.31;5074882;28;20344;-73
2023/03/20 00:22:12;;;;;;;19.00;11.98;;;;;;;8.15;100.00;101803.16;5091886;28;20094;-74
2023/03/20 00:24:37;;;;;;;18.17;11.48;;;;;;;8.18;100.00;101799.22;5092167;28;20066;-73
2023/03/20 00:27:04;;;;;;;19.45;11.95;;;;;;;8.20;100.00;101791.81;5091634;28;20131;-72
2023/03/20 00:29:31;;;;;;;18.67;11.48;;;;;;;8.18;100.00;101788.44;5091874;28;20107;-72
2023/03/20 00:31:57;;;;;;;19.45;12.02;;;;;;;8.16;100.00;101780.53;5092534;28;20027;-74
2023/03/20 00:34:26;;;;;;;17.17;11.52;;;;;;;8.09;100.00;101776.06;5091974;28;20055;-73
2023/03/20 00:36:52;;;;;;;19.90;11.32;;;;;;;8.09;100.00;101774.25;5092578;28;20150;-74
2023/03/20 00:39:18;;;;;;;16.20;10.43;;;;;;;8.10;100.00;101777.75;5074411;28;20024;-74
2023/03/20 00:41:48;;;;;;;15.88;10.65;;;;;;;8.06;100.00;101773.75;5092463;28;20452;-72
2023/03/20 00:44:18;;;;;;;15.68;10.25;;;;;;;7.97;100.00;101768.47;5075248;28;20032;-71
2023/03/20 00:46:46;;;;;;;20.58;11.07;;;;;;;7.96;100.00;101766.78;5072115;28;20028;-71
2023/03/20 00:49:12;;;;;;;18.35;10.98;;;;;;;7.94;100.00;101754.50;5053867;28;20091;-74
2023/03/20 00:51:38;;;;;;;14.70;9.88;;;;;;;7.90;100.00;101754.06;5072297;28;20016;-73
2023/03/20 00:54:14;;;;;;;17.63;10.55;;;;;;;7.90;100.00;101770.22;5076740;28;20032;-71
2023/03/20 00:56:44;;;;;;;18.98;10.82;;;;;;;7.84;100.00;101770.97;5092611;28;20093;-71
2023/03/20 00:59:20;;;;;;;19.00;10.55;;;;;;;7.79;100.00;101781.47;5106968;28;20024;-74
2023/03/20 01:01:48;;;;;;;15.05;10.18;;;;;;;7.72;100.00;101788.59;5092356;28;20483;-73
2023/03/20 01:04:16;;;;;;;14.30;9.88;;;;;;;7.67;100.00;101791.00;5111945;28;20023;-73
2023/03/20 01:06:42;;;;;;;16.70;10.60;;;;;;;7.65;100.00;101798.44;5113429;28;20466;-74
2023/03/20 01:09:08;;;;;;;15.57;10.40;;;;;;;7.62;100.00;101808.56;5117072;28;20023;-74
2023/03/20 01:11:34;;;;;;;17.90;10.40;;;;;;;7.56;100.00;101816.50;5116762;28;20354;-71
2023/03/20 01:14:01;;;;;;;17.00;11.25;;;;;;;7.43;100.00;101823.34;5115917;28;20149;-72
2023/03/20 01:16:26;;;;;;;16.25;10.95;;;;;;;7.34;100.00;101813.66;5098440;28;20019;-74
2023/03/20 01:18:52;;;;;;;17.42;11.30;;;;;;;7.38;100.00;101803.34;5116881;28;20023;-74
2023/03/20 01:21:19;;;;;;;18.02;11.93;;;;;;;7.36;100.00;101792.75;5115541;28;20039;-74
2023/03/20 01:23:44;;;;;;;17.95;11.35;;;;;;;7.36;100.00;101779.31;5116553;28;20144;-73
2023/03/20 01:26:26;;;;;;;18.05;12.40;;;;;;;7.39;100.00;101786.19;5116577;28;20448;-73
2023/03/20 01:28:51;;;;;;;19.67;11.55;;;;;;;7.36;100.00;101781.16;5097258;28;20035;-72
2023/03/20 01:31:17;;;;;;;20.10;12.50;;;;;;;7.38;100.00;101790.75;5116098;28;20024;-73
2023/03/20 01:33:43;;;;;;;18.33;12.27;;;;;;;7.35;100.00;101809.09;5098333;28;20403;-74
2023/03/20 01:36:10;;;;;;;18.95;12.52;;;;;;;7.34;100.00;101802.06;5116306;28;20053;-73
2023/03/20 01:38:37;;;;;;;19.88;13.02;;;;;;;7.28;100.00;101798.22;5116322;28;20031;-72
2023/03/20 01:41:07;;;;;;;21.92;13.35;;;;;;;7.27;100.00;101785.78;5089470;28;20515;-72
2023/03/20 01:43:33;;;;;;;19.45;13.07;;;;;;;7.27;100.00;101785.78;5100688;28;20032;-74
2023/03/20 01:46:14;;;;;;;18.13;12.65;;;;;;;7.29;100.00;101794.50;5116413;28;20085;-73
2023/03/20 01:48:51;;;;;;;21.00;13.18;;;;;;;7.30;100.00;101792.66;5116081;28;20428;-71
2023/03/20 01:51:18;;;;;;;20.25;14.80;;;;;;;7.25;100.00;101794.03;5115786;28;20030;-73
2023/03/20 01:53:47;;;;;;;19.30;13.18;;;;;;;7.30;100.00;101789.97;5113884;28;20438;-72
2023/03/20 01:56:14;;;;;;;22.27;13.27;;;;;;;7.23;100.00;101784.44;5094765;28;20031;-72
2023/03/20 01:58:44;;;;;;;21.63;14.25;;;;;;;7.20;100.00;101785.66;5094724;28;20057;-74
2023/03/20 02:01:12;;;;;;;20.67;13.25;;;;;;;7.19;100.00;101789.38;5093765;28;20024;-72
2023/03/20 02:03:39;;;;;;;20.40;14.23;;;;;;;7.19;100.00;101789.38;5095388;28;20468;-71
2023/03/20 02:06:05;;;;;;;19.35;13.60;;;;;;;7.18;100.00;101793.06;5095647;28;20023;-74
2023/03/20 02:08:38;;;;;;;21.92;14.38;;;;;;;7.19;100.00;101777.78;5095038;28;20035;-74
2023/03/20 02:11:04;;;;;;;20.00;14.20;;;;;;;7.21;100.00;101787.31;5095406;28;20020;-74
2023/03/20 02:13:30;;;;;;;19.55;13.65;;;;;;;7.18;100.00;101803.84;5094167;28;20016;-71
2023/03/20 02:16:11;;;;;;;22.35;14.57;;;;;;;7.21;100.00;101811.56;5094940;28;20431;-73
2023/03/20 02:18:39;;;;;;;21.67;14.98;;;;;;;7.15;100.00;101800.69;5094711;28;20111;-72
2023/03/20 02:21:23;;;;;;;19.88;15.13;;;;;;;7.01;100.00;101802.28;5075080;28;20028;-71
2023/03/20 02:24:21;;;;;;;20.73;14.52;;;;;;;7.03;100.00;101811.00;5075094;28;20028;-72
2023/03/20 02:27:12;;;;;;;21.95;15.73;;;;;;;6.98;100.00;101808.03;5073768;28;20071;-72
2023/03/20 02:29:56;;;;;;;21.13;14.52;;;;;;;6.93;100.00;101816.63;5074489;28;20051;-72
2023/03/20 02:32:48;;;;;;;22.67;15.93;;;;;;;6.90;100.00;101814.28;5077683;28;20035;-72
2023/03/20 02:35:30;;;;;;;26.48;16.30;;;;;;;6.85;100.00;101816.66;5095099;28;20020;-72
2023/03/20 02:38:01;;;;;;;;;;;;;;;7.00;100.00;101797.91;5077380;28;20028;-74
2023/03/20 02:40:43;;;;;;;22.02;15.48;;;;;;;6.87;100.00;101796.66;5084137;28;19912;-72
2023/03/20 02:43:24;;;;;;;24.25;15.48;;;;;;;6.85;100.00;101787.88;5075029;28;20119;-74
2023/03/20 02:45:59;;;;;;;23.45;15.57;;;;;;;6.83;100.00;101789.09;5074716;28;20020;-72
2023/03/20 02:48:39;;;;;;;27.38;16.13;;;;;;;6.83;100.00;101781.03;5074113;28;20025;-73
2023/03/20 02:51:21;;;;;;;27.52;16.08;;;;;;;6.82;100.00;101790.13;5077442;28;20394;-72
2023/03/20 02:53:51;;;;;;;23.15;16.52;;;;;;;6.85;100.00;101781.69;5093973;28;20024;-72
2023/03/20 02:56:31;;;;;;;25.15;16.00;;;;;;;6.86;100.00;101783.38;5094557;28;20031;-71
2023/03/20 02:59:19;;;;;;;23.23;16.60;;;;;;;6.82;100.00;101774.78;5094673;28;20028;-71
2023/03/20 03:01:51;;;;;;;24.85;16.48;;;;;;;6.76;100.00;101774.69;5084314;28;20024;-71
2023/03/20 03:04:22;;;;;;;24.15;16.27;;;;;;;6.76;100.00;101770.13;5076177;28;20030;-73
2023/03/20 03:06:51;;;;;;;26.30;17.08;;;;;;;6.69;100.00;101770.00;5070825;28;20032;-71
2023/03/20 03:09:26;;;;;;;25.80;16.38;;;;;;;6.69;100.00;101763.81;5076016;28;20028;-73
2023/03/20 03:12:26;;;;;;;23.02;16.40;;;;;;;6.74;100.00;101766.78;5093918;28;20023;-72
2023/03/20 03:15:00;;;;;;;23.65;16.83;;;;;;;6.76;100.00;101762.06;5094302;28;20071;-73
2023/03/20 03:17:29;;;;;;;23.85;16.58;;;;;;;6.68;100.00;101757.56;5075816;28;20020;-73
2023/03/20 03:19:59;;;;;;;27.35;17.65;;;;;;;6.64;100.00;101750.03;5094215;28;20078;-73
2023/03/20 03:22:25;;;;;;;22.58;16.83;;;;;;;6.66;100.00;101746.16;5090854;28;20384;-71
2023/03/20 03:24:53;;;;;;;25.73;16.63;;;;;;;6.65;100.00;101744.47;5094063;28;20413;-72
2023/03/20 03:27:41;;;;;;;25.02;16.65;;;;;;;6.68;100.00;101738.75;5093572;28;20028;-71
2023/03/20 03:30:14;;;;;;;24.13;16.80;;;;;;;6.70;100.00;101735.88;5092114;28;20040;-71
2023/03/20 03:33:03;;;;;;;24.95;15.70;;;;;;;6.71;100.00;101745.63;5093648;28;20024;-74
2023/03/20 03:35:30;;;;;;;22.05;15.60;;;;;;;6.61;100.00;101743.13;5092531;28;20046;-73
2023/03/20 03:38:00;;;;;;;23.77;15.82;;;;;;;6.61;100.00;101745.84;5092855;28;20148;-73
2023/03/20 03:40:42;;;;;;;24.03;15.73;;;;;;;6.67;100.00;101746.97;5082881;28;20020;-71
2023/03/20 03:43:10;;;;;;;21.10;16.02;;;;;;;6.59;100.00;101736.28;5073247;28;20016;-74
2023/03/20 03:45:43;;;;;;;23.25;15.50;;;;;;;6.57;100.00;101726.53;5073516;28;20046;-73
2023/03/20 03:48:19;;;;;;;22.48;14.65;;;;;;;6.62;100.00;101733.25;5054926;28;20051;-73
2023/03/20 03:50:52;;;;;;;22.90;15.50;;;;;;;6.58;100.00;101732.75;5073452;28;20436;-72
2023/03/20 03:53:23;;;;;;;20.27;15.18;;;;;;;6.55;100.00;101727.72;5092370;28;20016;-73
2023/03/20 03:55:53;;;;;;;23.25;15.13;;;;;;;6.51;100.00;101723.72;5093353;28;20035;-73
2023/03/20 03:58:28;;;;;;;22.90;15.75;;;;;;;6.55;100.00;101727.72;5113953;28;20106;-73
2023/03/20 04:00:56;;;;;;;20.05;14.23;;;;;;;6.54;100.00;101732.28;5111178;28;20079;-73
2023/03/20 04:03:27;;;;;;;20.17;14.43;;;;;;;6.56;100.00;101732.09;5113344;28;20030;-71
2023/03/20 04:05:57;;;;;;;20.58;15.25;;;;;;;6.53;100.00;101732.44;5114037;28;20405;-73
2023/03/20 04:08:22;;;;;;;24.23;15.30;;;;;;;6.59;100.00;101725.53;5112137;28;20034;-74
2023/03/20 04:10:47;;;;;;;23.45;14.50;;;;;;;6.59;100.00;101718.28;5112292;28;20020;-72
2023/03/20 04:13:12;;;;;;;20.25;14.40;;;;;;;6.53;100.00;101717.13;5113603;28;20452;-73
2023/03/20 04:15:38;;;;;;;19.38;14.30;;;;;;;6.53;100.00;101719.81;5112166;28;20030;-72
2023/03/20 04:18:04;;;;;;;21.10;14.70;;;;;;;6.48;100.00;101716.84;5110955;28;20132;-72
2023/03/20 04:20:29;;;;;;;23.25;14.02;;;;;;;6.42;100.00;101714.88;5111772;28;20149;-74
2023/03/20 04:22:55;;;;;;;21.58;14.13;;;;;;;6.40;100.00;101711.50;5113470;28;20152;-73
2023/03/20 04:25:23;;;;;;;21.42;14.25;;;;;;;6.40;100.00;101714.19;5111810;28;20031;-70
2023/03/20 04:27:49;;;;;;;21.95;14.73;;;;;;;6.39;100.00;101718.72;5113520;28;20031;-72
2023/03/20 04:30:15;;;;;;;22.15;15.18;;;;;;;6.37;100.00;101714.53;5111183;28;20366;-73
2023/03/20 04:32:41;;;;;;;19.38;13.88;;;;;;;6.36;100.00;101718.25;5113038;27;20063;-73
2023/03/20 04:35:07;;;;;;;22.48;14.60;;;;;;;6.29;100.00;101722.66;5098578;28;20641;-72
2023/03/20 04:37:32;;;;;;;19.92;14.07;;;;;;;6.29;100.00;101711.91;5113241;28;20110;-72
2023/03/20 04:39:57;;;;;;;21.65;14.25;;;;;;;6.35;100.00;101709.34;5113466;28;20461;-71
2023/03/20 04:42:23;;;;;;;20.85;13.50;;;;;;;6.33;100.00;101711.38;5111283;28;20020;-73
2023/03/20 04:44:48;;;;;;;20.77;13.48;;;;;;;6.34;100.00;101715.75;5112853;28;20054;-73
2023/03/20 04:47:13;;;;;;;22.27;14.23;;;;;;;6.31;100.00;101705.34;5113387;28;20084;-71
2023/03/20 04:49:39;;;;;;;21.95;13.30;;;;;;;6.32;100.00;101700.78;5111705;28;20454;-71
2023/03/20 04:52:06;;;;;;;19.10;14.07;;;;;;;6.29;100.00;101701.16;5110474;28;20462;-72
2023/03/20 04:54:31;;;;;;;18.65;12.40;;;;;;;6.35;100.00;101685.13;5112744;28;20063;-71
2023/03/20 04:56:56;;;;;;;21.40;14.40;;;;;;;6.32;100.00;101681.97;5113031;28;20042;-71
2023/03/20 04:59:22;;;;;;;20.58;13.95;;;;;;;6.31;100.00;101694.59;5112942;28;20015;-72
2023/03/20 05:01:47;;;;;;;22.77;14.18;;;;;;;6.31;100.00;101691.03;5110196;28;20062;-71
2023/03/20 05:04:12;;;;;;;21.08;12.95;;;;;;;6.28;100.00;101694.94;5098109;28;20024;-73
2023/03/20 05:06:38;;;;;;;23.90;14.40;;;;;;;6.28;100.00;101711.06;5092290;28;20072;-74
2023/03/20 05:09:03;;;;;;;21.63;14.48;;;;;;;6.34;100.00;101712.19;5092222;28;20044;-71
2023/03/20 05:11:29;;;;;;;22.50;13.68;;;;;;;6.37;100.00;101698.41;5090769;28;20027;-73
2023/03/20 05:13:54;;;;;;;21.95;14.30;;;;;;;6.30;100.00;101700.16;5090735;28;20024;-71
2023/03/20 05:16:20;;;;;;;22.67;13.93;;;;;;;6.32;100.00;101690.88;5092394;28;20103;-71
2023/03/20 05:18:45;;;;;;;23.27;14.82;;;;;;;6.33;100.00;101686.34;5090611;28;20044;-71
2023/03/20 05:21:11;;;;;;;22.48;13.73;;;;;;;6.35;100.00;101685.13;5092080;28;20028;-71
2023/03/20 05:23:36;;;;;;;20.98;13.27;;;;;;;6.31;100.00;101686.53;5090822;28;20060;-71
2023/03/20 05:26:02;;;;;;;20.80;13.25;;;;;;;6.32;100.00;101682.81;5091023;28;20350;-71
2023/03/20 05:28:28;;;;;;;19.40;12.75;;;;;;;6.30;100.00;101682.16;5092093;28;20032;-73
2023/03/20 05:30:53;;;;;;;19.35;12.75;;;;;;;6.28;100.00;101689.56;5090873;28;20031;-72
2023/03/20 05:33:19;;;;;;;21.00;13.05;;;;;;;6.31;100.00;101685.66;5105584;28;20055;-73
2023/03/20 05:35:45;;;;;;;18.98;12.82;;;;;;;6.34;100.00;101694.25;5112622;28;20486;-73
2023/03/20 05:38:10;;;;;;;23.10;13.00;;;;;;;6.31;100.00;101682.97;5111919;28;20023;-72
2023/03/20 05:40:36;;;;;;;24.80;12.77;;;;;;;6.34;100.00;101685.31;5112641;28;20066;-71
2023/03/20 05:43:01;;;;;;;20.73;12.13;;;;;;;6.35;100.00;101684.31;5112605;28;20115;-72
2023/03/20 05:45:26;;;;;;;20.38;12.00;;;;;;;6.31;100.00;101689.22;5112625;28;20046;-72
2023/03/20 05:47:52;;;;;;;23.70;12.20;;;;;;;6.33;100.00;101689.03;5111042;28;20442;-70
2023/03/20 05:50:17;;;;;;;21.42;12.85;;;;;;;6.33;100.00;101691.72;5112474;28;20509;-71
2023/03/20 05:52:46;;;;;;;22.40;12.30;;;;;;;6.36;100.00;101696.75;5112199;28;20060;-72
2023/03/20 05:55:11;;;;;;;22.77;11.70;;;;;;;6.39;100.00;101701.78;5109530;28;20127;-72
2023/03/20 05:57:37;;;;;;;18.75;11.45;;;;;;;6.40;100.00;101700.75;5094341;28;20475;-72
2023/03/20 06:00:04;;;;;;;19.85;11.30;;;;;;;6.36;100.00;101711.03;5095550;28;20024;-72
2023/03/20 06:02:29;;;;;;;20.77;11.55;;;;;;;6.39;100.00;101717.91;5102040;28;20400;-70
2023/03/20 06:04:55;;;;;;;21.88;11.23;;;;;;;6.39;100.00;101716.03;5115963;28;20023;-71
2023/03/20 06:07:20;;;;;;;20.00;11.77;;;;;;;6.40;100.00;101724.94;5116216;28;20393;-72
2023/03/20 06:09:45;;;;;;;19.75;11.13;;;;;;;6.41;100.00;101721.25;5115766;28;20027;-73
2023/03/20 06:12:11;;;;;;;20.85;11.02;;;;;;;6.43;100.00;101719.22;5115905;28;20051;-71
2023/03/20 06:14:36;;;;;;;20.50;10.90;;;;;;;6.46;100.00;101718.03;5114184;27;20072;-71
2023/03/20 06:17:02;;;;;;;20.92;10.90;;;;;;;6.45;100.00;101722.56;5109791;28;20307;-73
2023/03/20 06:19:27;;;;;;;20.27;10.73;;;;;;;6.38;100.00;101717.03;5115550;28;20020;-70
2023/03/20 06:21:52;;;;;;;21.45;11.65;;;;;;;6.42;100.00;101717.56;5114390;28;20039;-72
2023/03/20 06:24:18;;;;;;;21.77;11.10;;;;;;;6.43;100.00;101730.00;5116170;28;20026;-72
2023/03/20 06:26:43;;;;;;;19.60;11.18;;;;;;;6.49;100.00;101723.91;5115472;28;20344;-71
2023/03/20 06:29:09;;;;;;;20.30;10.63;;;;;;;6.45;100.00;101727.94;5114392;28;20027;-73
2023/03/20 06:31:34;;;;;;;21.33;10.30;;;;;;;6.45;100.00;101732.50;5113222;27;20487;-72
2023/03/20 06:33:59;;;;;;;19.65;10.20;;;;;;;6.50;100.00;101736.31;5097047;27;20032;-72
2023/03/20 06:36:25;;;;;;;20.85;10.27;;;;;;;6.47;100.00;101725.91;5112105;28;20027;-73
2023/03/20 06:38:50;;;;;;;21.98;10.50;;;;;;;6.49;100.00;101729.28;5113716;28;20129;-71
2023/03/20 06:41:16;;;;;;;18.77;10.30;;;;;;;6.48;100.00;101732.97;5115194;28;20047;-72
2023/03/20 06:43:41;;;;;;;23.02;10.57;;;;;;;6.51;100.00;101742.56;5113583;28;20454;-73
2023/03/20 06:46:08;;;;;;;20.45;11.38;;;;;;;6.51;100.00;101746.06;5115360;28;20035;-71
2023/03/20 06:48:33;;;;;;;20.90;10.75;;;;;;;6.56;100.00;101756.28;5114030;28;20023;-70
2023/03/20 06:50:58;;;;;;;19.65;10.60;;;;;;;6.57;100.00;101758.81;5112331;28;20030;-73
2023/03/20 06:53:24;;;;;;;23.75;10.73;;;;;;;6.59;100.00;101760.50;5113715;28;20024;-72
2023/03/20 06:55:50;;;;;;;18.58;10.30;;;;;;;6.55;100.00;101771.59;5115015;28;20039;-73
2023/03/20 06:58:16;;;;;;;20.13;11.25;;;;;;;6.55;100.00;101771.59;5115144;28;20054;-73
2023/03/20 07:00:42;;;;;;;21.85;11.35;;;;;;;6.60;100.00;101773.75;5112538;27;20076;-70
2023/03/20 07:03:08;;;;;;;21.17;10.50;;;;;;;6.58;100.00;101770.38;5104490;28;20378;-71
2023/03/20 07:05:33;;;;;;;20.75;10.43;;;;;;;6.59;100.00;101776.63;5113845;28;20027;-72
2023/03/20 07:07:59;;;;;;;20.60;11.02;;;;;;;6.61;100.00;101771.91;5115029;28;20030;-70
2023/03/20 07:10:25;;;;;;;24.58;11.40;;;;;;;6.64;100.00;101771.53;5113987;28;20371;-70
2023/03/20 07:12:50;;;;;;;22.48;11.10;;;;;;;6.62;100.00;101771.72;5114301;28;20358;-70
2023/03/20 07:15:21;;;;;;;18.80;10.65;;;;;;;6.65;100.00;101775.91;5114520;28;20022;-72
2023/03/20 07:17:47;;;;;;;19.30;10.27;;;;;;;6.69;100.00;101777.25;5113217;28;20505;-72
2023/03/20 07:20:12;;;;;;;21.52;11.32;;;;;;;6.73;100.00;101792.88;5113642;28;20028;-71
2023/03/20 07:22:42;;;;;;;20.20;10.15;;;;;;;6.80;100.00;101790.28;5114347;28;20104;-70
2023/03/20 07:25:09;;;;;;;21.42;10.90;;;;;;;6.82;100.00;101780.19;5114552;28;20028;-70
2023/03/20 07:27:35;;;;;;;21.27;10.60;;;;;;;6.87;100.00;101787.72;5112541;28;20016;-69
2023/03/20 07:30:01;;;;;;;20.23;10.88;;;;;;;6.89;100.00;101783.84;5114224;28;20030;-71
2023/03/20 07:32:26;;;;;;;21.00;10.63;;;;;;;6.90;100.00;101788.22;5111503;28;20603;-72
2023/03/20 07:34:52;;;;;;;21.92;10.23;;;;;;;6.92;100.00;101785.34;5107678;28;20100;-71
2023/03/20 07:37:17;;;;;;;20.25;10.82;;;;;;;6.89;100.00;101797.28;5114262;28;20046;-71
2023/03/20 07:39:43;;;;;;;22.05;10.38;;;;;;;6.91;100.00;101787.22;5112781;28;20027;-71
2023/03/20 07:42:12;;;;;;;19.67;10.10;;;;;;;6.96;100.00;101796.59;5114022;28;20469;-71
2023/03/20 07:44:38;;;;;;;21.63;10.15;;;;;;;6.96;100.00;101792.06;5113633;28;20027;-72
2023/03/20 07:47:04;;;;;;;23.02;10.55;;;;;;;6.95;100.00;101787.69;5113597;28;20465;-71
2023/03/20 07:49:30;;;;;;;19.60;9.93;;;;;;;6.97;100.00;101784.81;5106547;28;20038;-72
2023/03/20 07:51:55;;;;;;;22.35;9.77;;;;;;;7.01;100.00;101786.97;5100797;28;20027;-71
2023/03/20 07:54:21;;;;;;;23.10;9.93;;;;;;;7.06;100.00;101794.50;5112520;28;20397;-72
2023/03/20 07:56:46;;;;;;;19.25;9.77;;;;;;;7.05;100.00;101792.81;5113779;28;20065;-71
2023/03/20 07:59:15;;;;;;;20.50;9.57;;;;;;;7.11;100.00;101784.06;5113931;28;20019;-71
2023/03/20 08:01:40;;;;;;;25.05;9.95;;;;;;;7.10;100.00;101785.88;5109795;28;20023;-72
2023/03/20 08:04:05;;;;;;;21.23;9.50;;;;;;;7.11;100.00;101794.81;5112601;28;20020;-70
2023/03/20 08:06:30;;;;;;;24.15;9.50;;;;;;;7.11;100.00;101792.13;5110724;28;20015;-71
2023/03/20 08:08:56;;;;;;;20.63;9.48;;;;;;;7.08;100.00;101785.25;5113271;28;20066;-72
2023/03/20 08:11:21;;;;;;;18.55;9.85;;;;;;;7.12;100.00;101792.97;5113257;28;20491;-72
2023/03/20 08:13:47;;;;;;;20.38;10.00;;;;;;;7.11;100.00;101794.81;5105985;28;20027;-71
2023/03/20 08:16:12;;;;;;;22.52;10.30;;;;;;;7.12;100.00;101784.88;5106994;28;20085;-72
2023/03/20 08:18:37;;;;;;;23.25;8.90;;;;;;;7.14;100.00;101793.59;5103664;28;20028;-73
2023/03/20 08:21:03;;;;;;;19.08;9.07;;;;;;;7.14;100.00;101797.16;5110221;28;20039;-73
2023/03/20 08:23:29;;;;;;;19.33;9.07;;;;;;;7.14;100.00;101791.78;5111674;28;20035;-73
2023/03/20 08:25:54;;;;;;;22.67;9.20;;;;;;;7.15;100.00;101796.13;5110926;28;20535;-72
2023/03/20 08:28:21;;;;;;;21.25;9.27;;;;;;;7.17;100.00;101791.41;5112250;28;20059;-72
2023/03/20 08:30:46;;;;;;;19.85;8.32;;;;;;;7.15;100.00;101787.22;5109106;28;20028;-72
2023/03/20 08:33:12;;;;;;;17.25;8.13;;;;;;;7.17;100.00;101790.56;5112866;28;20157;-72
2023/03/20 08:35:38;;;;;;;18.65;8.68;;;;;;;7.15;100.00;101782.66;5112721;28;20354;-72
2023/03/20 08:38:03;;;;;;;19.77;8.38;;;;;;;7.20;100.00;101796.44;5112873;28;20019;-72
2023/03/20 08:40:29;;;;;;;17.70;8.65;;;;;;;7.30;100.00;101795.34;5112810;28;20404;-72
2023/03/20 08:42:55;;;;;;;18.92;8.27;;;;;;;7.31;100.00;101799.69;5112321;28;20051;-72
2023/03/20 08:45:25;;;;;;;18.80;8.25;;;;;;;7.32;100.00;101798.69;5110020;28;20077;-72
2023/03/20 08:47:51;;;;;;;19.15;7.80;;;;;;;7.33;100.00;101792.31;5128591;27;20027;-72
2023/03/20 08:50:18;;;;;;;18.92;7.90;;;;;;;7.33;100.00;101789.59;5132931;27;20054;-71
2023/03/20 08:52:45;;;;;;;18.52;8.18;;;;;;;7.38;100.00;101795.28;5132619;27;20549;-73
2023/03/20 08:55:12;;;;;;;22.35;8.32;;;;;;;7.40;100.00;101796.78;5133077;27;20096;-73
2023/03/20 08:57:38;;;;;;;17.83;7.90;;;;;;;7.45;100.00;101790.84;5132880;28;20023;-72
2023/03/20 09:00:05;;;;;;;20.25;8.15;;;;;;;7.45;100.00;101788.97;5120516;28;20034;-71
2023/03/20 09:02:31;;;;;;;20.05;8.88;;;;;;;7.53;100.00;101796.16;5109876;28;20027;-71
2023/03/20 09:04:56;;;;;;;22.17;9.65;;;;;;;7.55;100.00;101788.75;5110897;28;20027;-72
2023/03/20 09:07:21;;;;;;;22.48;13.02;;;;;;;7.53;100.00;101789.94;5132941;28;20021;-71
2023/03/20 09:09:47;;;;;;;19.17;8.18;;;;;;;7.50;100.00;101793.81;5132823;28;20055;-72
2023/03/20 09:12:12;;;;;;;19.60;8.10;;;;;;;7.49;100.00;101794.00;5133214;28;20466;-72
2023/03/20 09:14:37;;;;;;;17.33;8.32;;;;;;;7.44;100.00;101798.09;5118665;28;20048;-72
2023/03/20 09:17:04;;;;;;;17.23;8.35;;;;;;;7.41;100.00;101800.31;5108632;28;20088;-71
2023/03/20 09:19:30;;;;;;;21.00;8.98;;;;;;;7.38;100.00;101804.22;5094321;28;20027;-72
2023/03/20 09:21:55;;;;;;;26.35;9.13;;;;;;;7.39;100.00;101811.25;5112676;28;20042;-73
2023/03/20 09:24:20;;;;;;;20.10;8.48;;;;;;;7.38;100.00;101806.91;5109194;28;20023;-72
2023/03/20 09:26:46;;;;;;;18.73;8.18;;;;;;;7.36;100.00;101810.78;5103864;28;20040;-73
2023/03/20 09:29:11;;;;;;;20.95;8.30;;;;;;;7.31;100.00;101818.53;5095569;28;20027;-73
2023/03/20 09:31:36;;;;;;;23.75;9.18;;;;;;;7.28;100.00;101819.78;5116776;28;20110;-74
2023/03/20 09:34:02;;;;;;;20.08;8.30;;;;;;;7.25;100.00;101814.75;5116259;28;20027;-72
2023/03/20 09:36:27;;;;;;;19.73;8.02;;;;;;;7.21;100.00;101810.72;5113961;28;20050;-73
2023/03/20 09:38:53;;;;;;;20.77;8.30;;;;;;;7.21;100.00;101806.16;5110155;28;20034;-75
2023/03/20 09:41:26;;;;;;;20.73;8.52;;;;;;;7.21;100.00;101808.84;5103437;28;20036;-75
2023/03/20 09:44:11;;;;;;;18.80;8.68;;;;;;;7.26;100.00;101811.88;5085329;28;20424;-74
2023/03/20 09:46:55;;;;;;;18.67;8.05;;;;;;;7.26;100.00;101806.47;5112676;28;20027;-74
2023/03/20 09:49:41;;;;;;;18.20;8.20;;;;;;;7.23;100.00;101804.16;5096210;28;20039;-73
2023/03/20 09:52:25;;;;;;;18.55;8.05;;;;;;;7.23;100.00;101812.22;5076842;28;20040;-74
2023/03/20 09:54:53;;;;;;;20.25;8.50;;;;;;;7.17;100.00;101807.56;5087808;28;20085;-73
2023/03/20 09:57:24;;;;;;;19.10;8.55;;;;;;;7.17;100.00;101802.19;5116281;28;20065;-72
2023/03/20 09:59:56;;;;;;;19.15;8.57;;;;;;;7.19;100.00;101802.81;5097956;28;20350;-72
2023/03/20 10:02:39;;;;;;;21.27;8.25;;;;;;;7.21;100.00;101798.09;5113950;28;20024;-72
2023/03/20 10:05:32;;;;;;;19.27;8.00;;;;;;;7.20;100.00;101800.97;5116047;28;20027;-72
2023/03/20 10:08:00;;;;;;;18.05;7.20;;;;;;;7.18;100.00;101801.16;5114712;28;20043;-72
2023/03/20 10:10:47;;;;;;;19.58;7.28;;;;;;;7.21;100.00;101799.97;5115949;28;20035;-72
2023/03/20 10:13:30;;;;;;;18.45;7.63;;;;;;;7.23;100.00;101797.91;5115641;28;20511;-72
2023/03/20 10:16:01;;;;;;;19.13;7.95;;;;;;;7.19;100.00;101793.94;5115515;28;20072;-72
2023/03/20 10:18:31;;;;;;;20.25;7.35;;;;;;;7.21;100.00;101791.88;5097612;28;21005;-73
2023/03/20 10:21:14;;;;;;;18.65;7.20;;;;;;;7.23;100.00;101792.53;5115649;28;20031;-73
2023/03/20 10:23:49;;;;;;;20.02;7.40;;;;;;;7.27;100.00;101780.38;5115821;28;20062;-73
2023/03/20 10:26:18;;;;;;;21.35;7.63;;;;;;;7.30;100.00;101779.19;5115824;28;20036;-73
2023/03/20 10:28:56;;;;;;;18.05;7.60;;;;;;;7.36;100.00;101773.09;5115715;28;20020;-73
2023/03/20 10:31:43;;;;;;;23.35;7.53;;;;;;;7.37;100.00;101777.47;5115522;28;20029;-73
2023/03/20 10:34:11;;;;;;;20.95;7.30;;;;;;;7.37;100.00;101780.16;5097266;28;20028;-73
2023/03/20 10:36:51;;;;;;;18.20;6.97;;;;;;;7.35;100.00;101777.66;5097158;28;20447;-73
2023/03/20 10:39:49;;;;;;;20.92;7.40;;;;;;;7.45;100.00;101772.00;5114899;28;20038;-73
2023/03/20 10:42:29;;;;;;;15.57;7.22;;;;;;;7.50;100.00;101774.16;5115497;28;20031;-73
2023/03/20 10:45:00;;;;;;;19.42;7.13;;;;;;;7.54;100.00;101762.81;5115330;28;20035;-73
2023/03/20 10:47:29;;;;;;;20.98;7.47;;;;;;;7.61;100.00;101771.84;5115372;28;20035;-72
2023/03/20 10:50:06;;;;;;;18.55;6.93;;;;;;;7.65;100.00;101776.88;5115069;28;20024;-73
2023/03/20 10:52:34;;;;;;;22.10;7.95;;;;;;;7.72;100.00;101775.13;5114818;28;20031;-73
2023/03/20 10:55:03;;;;;;;17.65;7.70;;;;;;;7.73;100.00;101785.72;5114562;28;20096;-72
2023/03/20 10:57:32;;;;;;;18.55;8.02;;;;;;;7.79;100.00;101778.78;5114861;28;20099;-72
2023/03/20 10:59:58;;;;;;;19.13;7.57;;;;;;;7.77;100.00;101780.78;5114930;28;20285;-73
2023/03/20 11:02:29;;;;;;;19.10;7.55;;;;;;;7.77;100.00;101773.53;5112607;28;20022;-73
2023/03/20 11:04:54;;;;;;;19.92;7.93;;;;;;;7.81;100.00;101761.38;5096268;28;20407;-73
2023/03/20 11:07:27;;;;;;;16.88;7.68;;;;;;;7.87;100.00;101769.75;5115097;28;20023;-72
2023/03/20 11:10:05;;;;;;;20.67;8.27;;;;;;;7.88;100.00;101764.19;5096582;28;20016;-73
2023/03/20 11:12:35;;;;;;;17.40;7.70;;;;;;;7.85;100.00;101766.41;5096483;28;20447;-73
2023/03/20 11:15:03;;;;;;;17.90;7.88;;;;;;;7.85;100.00;101761.88;5096156;28;20114;-72
2023/03/20 11:17:28;;;;;;;16.83;7.40;;;;;;;7.84;100.00;101754.78;5114526;28;20328;-73
2023/03/20 11:20:03;;;;;;;16.63;7.18;;;;;;;7.85;100.00;101744.84;5114888;28;20281;-73